Impacts METAR Board
IDs:

KIAD - Washington/Dulles In, VA, US

Updated at: 2000 UTC 23 Sep 2018
Potential Impact None Slight Moderate High
Time 23/08Z 23/09Z 23/10Z 23/11Z 23/12Z 23/13Z 23/14Z 23/15Z 23/16Z 23/17Z 23/18Z 23/19Z 23/20Z
Temp59 59 59 58 58 58 58 59 61 61 62 62 62
Dewpt57 56 57 57 57 58 58 59 60 60 61 62 61
Altim30.19 30.20 30.18 30.18 30.19 30.21 30.21 30.23 30.22 30.22 30.22 30.20 30.19
VIS10 10 10 8 7 2.5 3 1.5 2 2.5 2 2 2.5
CIG46 33 80 70 60 17 18 6 7 7 7 5 8
CoverOVCOVCOVCOVCOVCOVCOVCOVCOVCOVCOVCOVCOVC
FltCatVFRVFRVFRVFRVFRIFRMVFRIFRIFRIFRIFRIFRIFR
WX-RA-RA-RA-RA-RA-RA BR-RA BRRA BR-RA BR-RA BR-RA BR-RA BR-RA BR
WDir1010401035036030360203603505040
WSpd6 6 6 5 7 6 7 6 4 6 5 7 8
WGst-- -- -- -- -- -- -- -- -- -- -- -- --
Raw hourly METARs
KIAD 230752Z 01006KT 10SM -RA BKN046 BKN060 OVC100 15/14 A3019 RMK AO2 SLP222 P0002 T01500139
KIAD 230852Z 01006KT 10SM -RA OVC033 15/13 A3020 RMK AO2 RAE11B45 SLP223 P0000 60002 T01500133 55002
KIAD 230952Z 04006KT 10SM -RA FEW036 SCT065 OVC080 15/14 A3018 RMK AO2 SLP219 P0002 T01500139
KIAD 231052Z 01005KT 8SM -RA FEW040 OVC070 14/14 A3018 RMK AO2 SLP219 P0005 T01440139
KIAD 231152Z 35007KT 7SM -RA FEW040 BKN060 OVC075 14/14 A3019 RMK AO2 SLP223 P0005 60014 70014 T01440139 10161 20144 55001
KIAD 231252Z 36006KT 2 1/2SM -RA BR SCT006 BKN017 OVC050 14/14 A3021 RMK AO2 SLP229 P0005 T01440144
KIAD 231359Z 03007KT 3SM -RA BR FEW006 BKN018 OVC030 14/14 A3021 RMK AO2 P0001 T01440144
KIAD 231452Z 36006KT 1 1/2SM RA BR BKN006 OVC017 15/15 A3023 RMK AO2 SLP235 P0009 60028 T01500150 51012
KIAD 231552Z 02004KT 2SM -RA BR BKN007 BKN013 OVC019 16/16 A3022 RMK AO2 SLP234 P0008 T01610156
KIAD 231701Z 36006KT 2 1/2SM -RA BR OVC007 16/16 A3022 RMK AO2 CIG 005V011 P0000 T01610156
KIAD 231752Z 35005KT 2SM -RA BR OVC007 17/16 A3022 RMK AO2 CIG 005V009 SLP231 P0002 60042 T01670161 10167 20144 57004
KIAD 231852Z 05007KT 2SM -RA BR BKN005 OVC011 17/17 A3020 RMK AO2 SLP225 P0001 T01670167
KIAD 231952Z 04008KT 2 1/2SM -RA BR BKN008 OVC013 17/16 A3019 RMK AO2 RAE22B40 SLP223 P0001 T01670161



Page loaded:  20:05 UTC  |   01:05 PM Pacific  |   02:05 PM Mountain  |   03:05 PM Central  |   04:05 PM Eastern

 

ADVISORIES

FORECASTS

FORECASTS

OBSERVATIONS

USER TOOLS

ABOUT US